Time;durP1;ratioP1;P1;durP2;ratioP2;P2;SDS_P1;SDS_P2;PMS_P1;PMS_P2;Temp;Humidity;BMP_temperature;BMP_pressure;BME280_temperature;BME280_humidity;BME280_pressure;Samples;Min_cycle;Max_cycle;Signal;HPM_P1;HPM_P2
2023/03/11 00:00:08;;;;;;;3.22;3.00;;;;;;;3.62;66.71;99862.34;680260;29;1391;-89
2023/03/11 00:00:30;;;;;;;3.52;3.22;;;;;;;3.59;66.24;99849.31;685682;28;1419;-88
2023/03/11 00:00:51;;;;;;;3.35;3.05;;;;;;;3.70;66.47;99876.44;685539;28;1258;-88
2023/03/11 00:01:12;;;;;;;3.37;3.07;;;;;;;3.66;66.36;99874.53;685642;28;964;-88
2023/03/11 00:01:32;;;;;;;3.33;3.00;;;;;;;3.68;66.30;99878.97;682762;28;1300;-88
2023/03/11 00:01:53;;;;;;;3.65;3.15;;;;;;;3.49;66.73;99871.28;685416;28;1289;-88
2023/03/11 00:02:14;;;;;;;3.90;3.10;;;;;;;3.45;66.84;99880.59;685593;28;1181;-88
2023/03/11 00:02:35;;;;;;;3.65;3.25;;;;;;;3.40;66.75;99864.03;685602;28;1230;-89
2023/03/11 00:02:58;;;;;;;3.35;3.05;;;;;;;3.55;66.59;99858.59;682444;29;1273;-88
2023/03/11 00:03:22;;;;;;;3.10;2.90;;;;;;;3.61;66.59;99876.06;685555;28;1008;-89
2023/03/11 00:03:42;;;;;;;3.20;3.00;;;;;;;3.62;66.71;99878.69;685571;28;1236;-89
2023/03/11 00:04:03;;;;;;;3.50;3.20;;;;;;;3.77;66.14;99878.47;688115;28;1343;-89
2023/03/11 00:04:24;;;;;;;3.40;3.10;;;;;;;3.73;66.20;99865.38;682973;28;1149;-89
2023/03/11 00:04:44;;;;;;;3.03;2.83;;;;;;;3.64;66.33;99866.75;682857;29;1117;-88
2023/03/11 00:05:06;;;;;;;2.80;2.60;;;;;;;3.70;66.14;99887.63;688217;28;1276;-89
2023/03/11 00:05:31;;;;;;;2.83;2.63;;;;;;;3.84;66.61;99892.50;688304;28;1643;-89
2023/03/11 00:05:54;;;;;;;3.30;3.00;;;;;;;3.81;66.10;99879.47;682805;28;1380;-88
2023/03/11 00:06:15;;;;;;;3.97;3.20;;;;;;;3.83;66.01;99873.56;682874;28;1399;-88
2023/03/11 00:06:36;;;;;;;4.10;3.07;;;;;;;3.94;66.09;99879.13;679940;29;997;-89
2023/03/11 00:06:57;;;;;;;3.60;2.90;;;;;;;3.99;65.51;99875.88;679932;29;1057;-88
2023/03/11 00:07:18;;;;;;;3.20;2.90;;;;;;;4.03;65.57;99870.91;690787;28;1466;-88
2023/03/11 00:07:38;;;;;;;3.10;2.83;;;;;;;4.05;65.31;99871.81;688212;28;1626;-89
2023/03/11 00:08:00;;;;;;;3.13;2.83;;;;;;;4.08;65.38;99869.38;690858;28;1274;-88
2023/03/11 00:08:23;;;;;;;3.30;3.00;;;;;;;4.14;65.18;99873.91;690970;28;1071;-88
2023/03/11 00:08:43;;;;;;;3.30;2.90;;;;;;;4.21;65.24;99883.66;691036;28;997;-88
2023/03/11 00:09:04;;;;;;;3.30;3.00;;;;;;;4.24;64.77;99885.53;685281;28;1281;-89
2023/03/11 00:09:25;;;;;;;3.10;2.80;;;;;;;4.24;64.97;99885.53;682982;28;1153;-88
2023/03/11 00:09:46;;;;;;;3.20;3.00;;;;;;;4.15;64.87;99892.84;682979;29;1078;-89
2023/03/11 00:10:07;;;;;;;3.28;2.97;;;;;;;4.02;65.16;99892.38;682712;28;1290;-88
2023/03/11 00:10:32;;;;;;;3.50;3.20;;;;;;;4.04;64.98;99892.44;688411;28;1249;-88
2023/03/11 00:10:59;;;;;;;3.30;3.00;;;;;;;4.11;65.02;99889.28;688216;28;1290;-88
2023/03/11 00:11:21;;;;;;;3.10;2.90;;;;;;;4.13;64.83;99886.75;691004;28;1214;-89
2023/03/11 00:11:42;;;;;;;3.00;2.80;;;;;;;4.16;64.76;99892.91;688295;28;1284;-89
2023/03/11 00:12:03;;;;;;;3.20;2.90;;;;;;;4.22;64.79;99887.13;685488;28;1199;-89
2023/03/11 00:12:24;;;;;;;3.30;3.00;;;;;;;4.14;64.75;99883.34;680258;28;1117;-88
2023/03/11 00:12:44;;;;;;;3.35;3.05;;;;;;;4.22;64.72;99902.63;683108;28;1178;-88
2023/03/11 00:13:07;;;;;;;3.00;2.80;;;;;;;4.16;64.55;99895.50;688104;28;1915;-89
2023/03/11 00:13:29;;;;;;;3.30;3.00;;;;;;;4.18;64.62;99900.72;685708;28;1290;-89
2023/03/11 00:13:49;;;;;;;3.20;2.83;;;;;;;4.18;64.74;99905.91;688281;28;1165;-89
2023/03/11 00:14:10;;;;;;;3.20;2.90;;;;;;;4.23;64.77;99909.59;682791;28;1193;-89
2023/03/11 00:14:30;;;;;;;3.10;2.80;;;;;;;4.10;64.68;99906.47;685612;28;1294;-88
2023/03/11 00:14:51;;;;;;;2.97;2.78;;;;;;;4.07;64.97;99902.88;688307;28;1023;-88
2023/03/11 00:15:12;;;;;;;2.80;2.60;;;;;;;4.15;64.97;99911.81;690978;28;970;-88
2023/03/11 00:15:33;;;;;;;2.92;2.72;;;;;;;4.16;64.89;99910.13;691018;28;1286;-89
2023/03/11 00:15:55;;;;;;;3.10;2.90;;;;;;;4.13;64.90;99900.56;682820;29;1283;-89
2023/03/11 00:16:15;;;;;;;3.50;3.20;;;;;;;4.16;64.77;99900.66;685666;28;1292;-89
2023/03/11 00:16:36;;;;;;;3.47;3.17;;;;;;;4.03;64.66;99896.72;685551;28;1361;-87
2023/03/11 00:16:57;;;;;;;3.40;3.10;;;;;;;4.07;65.19;99898.63;688044;28;1192;-88
2023/03/11 00:17:17;;;;;;;3.10;2.90;;;;;;;4.21;64.84;99913.75;685563;28;1283;-89
2023/03/11 00:17:39;;;;;;;3.20;2.90;;;;;;;4.21;65.01;99906.91;685691;28;1065;-88
2023/03/11 00:18:00;;;;;;;3.30;3.00;;;;;;;4.20;64.80;99899.09;688171;28;1288;-89
2023/03/11 00:18:25;;;;;;;3.20;2.90;;;;;;;4.21;64.51;99911.16;688257;28;1277;-88
2023/03/11 00:18:49;;;;;;;3.00;2.80;;;;;;;4.24;64.70;99911.34;688166;28;1403;-88
2023/03/11 00:19:10;;;;;;;3.10;2.80;;;;;;;4.19;64.72;99905.06;688057;28;1116;-88
2023/03/11 00:19:31;;;;;;;3.15;2.95;;;;;;;4.19;64.63;99908.56;682951;29;1400;-88
2023/03/11 00:19:51;;;;;;;3.37;3.07;;;;;;;4.26;64.68;99912.28;682976;29;1106;-88
2023/03/11 00:20:24;;;;;;;3.45;3.03;;;;;;;4.15;64.99;99901.50;680247;29;905;-88
2023/03/11 00:20:45;;;;;;;4.82;3.00;;;;;;;4.10;64.71;99903.88;685560;28;1597;-88
2023/03/11 00:21:15;;;;;;;4.00;2.97;;;;;;;4.10;64.87;99908.16;682778;29;1128;-89
2023/03/11 00:21:35;;;;;;;3.35;2.80;;;;;;;4.18;64.90;99917.09;685486;28;1105;-88
2023/03/11 00:21:56;;;;;;;3.10;2.90;;;;;;;4.24;64.52;99921.69;680034;29;1154;-88
2023/03/11 00:22:17;;;;;;;3.15;2.92;;;;;;;4.25;64.79;99913.09;685554;28;1359;-88
2023/03/11 00:22:37;;;;;;;3.40;3.10;;;;;;;4.30;64.60;99921.91;685569;28;1046;-89
2023/03/11 00:22:59;;;;;;;4.40;3.00;;;;;;;4.30;64.42;99927.06;685621;28;1150;-88
2023/03/11 00:23:20;;;;;;;4.57;3.00;;;;;;;4.20;64.56;99923.22;685541;28;1400;-88
2023/03/11 00:23:49;;;;;;;4.80;2.80;;;;;;;4.25;64.42;99926.03;688253;28;1074;-90
2023/03/11 00:24:10;;;;;;;3.45;2.75;;;;;;;4.23;64.49;99912.16;689980;28;929;-88
2023/03/11 00:24:31;;;;;;;3.25;2.75;;;;;;;4.27;64.47;99919.22;685570;28;1290;-89
2023/03/11 00:24:51;;;;;;;3.17;2.90;;;;;;;4.16;64.17;99912.72;690771;28;1203;-88
2023/03/11 00:25:12;;;;;;;3.40;2.90;;;;;;;4.29;63.95;99927.88;688283;28;1186;-88
2023/03/11 00:25:36;;;;;;;2.97;2.55;;;;;;;4.04;64.58;99908.78;685583;28;1442;-88
2023/03/11 00:25:58;;;;;;;4.38;2.60;;;;;;;4.11;64.58;99910.81;685494;28;1064;-88
2023/03/11 00:26:19;;;;;;;4.40;2.92;;;;;;;4.23;63.95;99930.25;690909;28;1338;-88
2023/03/11 00:26:40;;;;;;;4.90;3.20;;;;;;;4.07;64.17;99916.69;690866;28;1146;-88
2023/03/11 00:27:00;;;;;;;3.17;2.90;;;;;;;4.11;64.10;99930.59;682675;28;1274;-88
2023/03/11 00:27:21;;;;;;;3.25;2.95;;;;;;;4.01;64.25;99921.59;688290;28;1262;-88
2023/03/11 00:27:42;;;;;;;3.70;3.10;;;;;;;3.99;63.88;99925.81;688138;28;1180;-89
2023/03/11 00:28:06;;;;;;;3.65;3.05;;;;;;;3.86;64.17;99926.13;690750;28;1252;-88
2023/03/11 00:28:26;;;;;;;3.40;3.00;;;;;;;3.82;64.25;99917.38;690976;28;1243;-88
2023/03/11 00:28:48;;;;;;;3.00;2.80;;;;;;;3.86;64.25;99923.53;688256;28;1199;-88
2023/03/11 00:29:08;;;;;;;2.92;2.72;;;;;;;3.87;64.53;99914.97;680045;28;1258;-88
2023/03/11 00:29:29;;;;;;;3.22;2.92;;;;;;;3.87;64.52;99926.19;685709;28;799;-88
2023/03/11 00:29:50;;;;;;;3.30;3.00;;;;;;;3.79;64.43;99923.28;688224;28;1150;-88
2023/03/11 00:30:12;;;;;;;3.92;3.10;;;;;;;3.60;64.54;99928.50;685674;28;968;-88
2023/03/11 00:30:32;;;;;;;3.58;3.00;;;;;;;3.45;64.74;99927.00;688260;28;1398;-87
2023/03/11 00:30:53;;;;;;;3.50;3.20;;;;;;;3.37;65.16;99938.69;690893;28;1119;-88
2023/03/11 00:31:14;;;;;;;3.70;3.08;;;;;;;3.39;65.38;99931.91;685552;28;1304;-89
2023/03/11 00:31:35;;;;;;;3.72;2.92;;;;;;;3.30;65.47;99934.06;680261;28;1444;-89
2023/03/11 00:31:55;;;;;;;3.87;2.90;;;;;;;3.27;65.72;99927.94;690863;28;1173;-88
2023/03/11 00:32:16;;;;;;;3.10;2.80;;;;;;;3.45;65.54;99947.66;690836;28;1112;-88
2023/03/11 00:32:37;;;;;;;3.30;3.00;;;;;;;3.36;65.56;99942.97;680339;29;1411;-88
2023/03/11 00:32:59;;;;;;;3.20;2.90;;;;;;;3.46;65.50;99952.00;682872;28;1910;-88
2023/03/11 00:33:19;;;;;;;3.05;2.75;;;;;;;3.27;65.69;99932.25;685491;28;1362;-89
2023/03/11 00:33:40;;;;;;;4.00;2.70;;;;;;;3.38;65.55;99941.31;685571;28;1398;-88
2023/03/11 00:34:01;;;;;;;3.37;2.50;;;;;;;3.27;65.92;99938.25;688162;28;1172;-88
2023/03/11 00:34:21;;;;;;;3.05;2.50;;;;;;;3.44;65.78;99924.34;680337;29;1131;-87
2023/03/11 00:34:42;;;;;;;2.70;2.50;;;;;;;3.56;65.47;99936.09;688236;28;1188;-87
2023/03/11 00:35:03;;;;;;;2.93;2.70;;;;;;;3.63;65.23;99936.34;684998;28;1099;-87
2023/03/11 00:35:27;;;;;;;3.92;2.70;;;;;;;3.48;65.52;99932.28;688135;28;1395;-87
2023/03/11 00:35:49;;;;;;;4.10;2.83;;;;;;;3.66;65.41;99936.47;682860;28;1558;-87
2023/03/11 00:36:36;;;;;;;3.00;2.70;;;;;;;3.76;65.20;99937.75;685336;28;1187;-87
2023/03/11 00:36:56;;;;;;;3.10;2.80;;;;;;;3.73;65.25;99933.34;687843;28;1152;-88
2023/03/11 00:37:17;;;;;;;2.90;2.70;;;;;;;3.70;65.04;99930.63;688274;28;1265;-87
2023/03/11 00:37:38;;;;;;;2.90;2.70;;;;;;;3.75;65.17;99933.41;688160;28;1150;-88
2023/03/11 00:38:02;;;;;;;3.00;2.80;;;;;;;3.82;65.07;99938.00;688111;28;1019;-87
2023/03/11 00:38:23;;;;;;;2.90;2.70;;;;;;;3.81;65.16;99931.97;682969;29;1275;-88
2023/03/11 00:38:43;;;;;;;2.78;2.58;;;;;;;3.82;65.21;99949.19;685518;28;1300;-87
2023/03/11 00:39:06;;;;;;;2.90;2.70;;;;;;;3.80;65.43;99945.69;688004;28;1312;-87
2023/03/11 00:39:27;;;;;;;3.22;2.90;;;;;;;3.89;64.81;99950.38;685628;28;835;-87
2023/03/11 00:39:47;;;;;;;3.13;2.80;;;;;;;3.94;64.94;99953.13;685585;28;1181;-87
2023/03/11 00:40:12;;;;;;;3.97;2.80;;;;;;;3.98;65.26;99957.59;693572;28;1087;-87
2023/03/11 00:40:34;;;;;;;3.90;2.85;;;;;;;3.94;65.25;99955.72;688279;28;906;-87
2023/03/11 00:40:56;;;;;;;3.65;2.80;;;;;;;3.94;65.14;99947.97;690752;28;1308;-87
2023/03/11 00:41:17;;;;;;;3.25;2.78;;;;;;;3.94;65.05;99951.41;693438;28;1340;-87
2023/03/11 00:41:38;;;;;;;3.63;2.83;;;;;;;3.72;65.00;99944.47;685480;28;1256;-87
2023/03/11 00:41:59;;;;;;;3.40;2.90;;;;;;;3.76;65.37;99951.56;688244;28;1374;-87
2023/03/11 00:42:20;;;;;;;3.50;3.03;;;;;;;3.67;65.24;99938.22;685522;28;1290;-87
2023/03/11 00:42:41;;;;;;;3.30;3.00;;;;;;;3.66;65.55;99939.06;680234;29;1111;-87
2023/03/11 00:43:04;;;;;;;3.35;3.05;;;;;;;3.69;65.57;99944.38;682640;29;1118;-87
2023/03/11 00:43:25;;;;;;;3.50;3.20;;;;;;;3.58;65.43;99935.25;683033;29;800;-87
2023/03/11 00:43:45;;;;;;;3.30;3.07;;;;;;;3.56;65.96;99938.66;688161;28;1194;-87
2023/03/11 00:44:06;;;;;;;3.20;3.00;;;;;;;3.58;65.76;99938.75;682841;29;1166;-87
2023/03/11 00:44:27;;;;;;;3.10;2.90;;;;;;;3.59;65.79;99939.59;682945;29;1309;-87
2023/03/11 00:44:47;;;;;;;3.20;2.90;;;;;;;3.65;65.65;99937.28;688255;28;1203;-87
2023/03/11 00:45:09;;;;;;;2.90;2.60;;;;;;;3.81;65.74;99956.91;682684;28;1141;-87
2023/03/11 00:45:30;;;;;;;3.92;2.72;;;;;;;3.81;65.58;99955.19;685631;28;865;-87
2023/03/11 00:45:51;;;;;;;3.28;2.72;;;;;;;3.75;65.46;99936.00;682812;29;1263;-86
2023/03/11 00:46:11;;;;;;;3.30;3.00;;;;;;;3.73;65.36;99948.81;685532;28;1203;-87
2023/03/11 00:46:32;;;;;;;3.35;3.10;;;;;;;3.67;65.41;99948.56;685606;28;950;-87
2023/03/11 00:46:52;;;;;;;3.37;3.10;;;;;;;3.55;65.90;99944.63;688045;28;1118;-86
2023/03/11 00:47:13;;;;;;;3.20;2.90;;;;;;;3.47;65.89;99939.94;691355;28;1187;-87
2023/03/11 00:47:34;;;;;;;3.00;2.70;;;;;;;3.50;65.85;99959.03;688869;28;1294;-87
2023/03/11 00:47:56;;;;;;;3.33;2.70;;;;;;;3.46;66.26;99951.09;688662;28;1293;-87
2023/03/11 00:48:16;;;;;;;3.10;2.80;;;;;;;3.53;66.08;99961.75;686011;28;1246;-86
2023/03/11 00:48:37;;;;;;;3.30;3.00;;;;;;;3.42;66.05;99962.97;688873;28;1149;-87
2023/03/11 00:48:57;;;;;;;3.10;2.90;;;;;;;3.45;66.57;99963.13;688617;28;1194;-86
2023/03/11 00:49:18;;;;;;;3.55;3.25;;;;;;;3.38;66.41;99955.94;691457;28;1105;-87
2023/03/11 00:49:39;;;;;;;3.47;3.17;;;;;;;3.39;66.38;99950.81;691489;28;1086;-87
2023/03/11 00:49:59;;;;;;;3.47;3.17;;;;;;;3.46;66.80;99964.88;688608;28;1234;-87
2023/03/11 00:50:23;;;;;;;3.10;2.80;;;;;;;3.40;66.53;99964.59;688777;28;1277;-87
2023/03/11 00:50:44;;;;;;;3.70;3.10;;;;;;;3.32;66.92;99955.66;688644;28;1128;-87
2023/03/11 00:51:13;;;;;;;4.13;3.00;;;;;;;3.36;66.63;99963.59;688614;28;1193;-87
2023/03/11 00:51:34;;;;;;;4.00;2.97;;;;;;;3.42;66.53;99968.13;688797;28;1165;-87
2023/03/11 00:51:54;;;;;;;3.10;2.80;;;;;;;3.42;66.60;99973.28;688619;28;1217;-86
2023/03/11 00:52:15;;;;;;;3.10;2.80;;;;;;;3.39;66.77;99974.03;691424;28;1057;-87
2023/03/11 00:52:36;;;;;;;3.40;2.80;;;;;;;3.39;66.78;99973.16;691530;28;1520;-87
2023/03/11 00:52:57;;;;;;;3.60;3.00;;;;;;;3.38;67.15;99955.94;685823;28;1982;-87
2023/03/11 00:53:19;;;;;;;3.22;2.80;;;;;;;3.43;66.82;99964.72;688710;28;1325;-87
2023/03/11 00:53:40;;;;;;;2.97;2.78;;;;;;;3.41;66.87;99966.38;691451;28;1118;-87
2023/03/11 00:54:01;;;;;;;2.90;2.70;;;;;;;3.40;67.02;99970.66;694252;28;1012;-86
2023/03/11 00:54:23;;;;;;;3.00;2.80;;;;;;;3.48;66.76;99973.56;683522;29;898;-86
2023/03/11 00:54:45;;;;;;;3.13;2.83;;;;;;;3.43;66.52;99964.72;683388;28;1216;-87
2023/03/11 00:55:06;;;;;;;3.00;2.70;;;;;;;3.49;66.54;99970.16;691270;28;1200;-87
2023/03/11 00:55:32;;;;;;;3.72;2.80;;;;;;;3.56;66.68;99976.50;691515;28;901;-87
2023/03/11 00:55:54;;;;;;;3.45;3.00;;;;;;;3.42;66.71;99970.72;688754;28;1102;-87
2023/03/11 00:56:15;;;;;;;3.58;3.10;;;;;;;3.46;66.39;99970.03;691488;28;1343;-86
2023/03/11 00:56:37;;;;;;;3.35;3.05;;;;;;;3.47;66.87;99963.16;690983;28;1260;-86
2023/03/11 00:56:58;;;;;;;3.53;2.90;;;;;;;3.50;66.27;99966.75;691206;28;1390;-87
2023/03/11 00:57:19;;;;;;;3.15;2.85;;;;;;;3.47;66.80;99965.75;688761;28;1223;-87
2023/03/11 00:57:41;;;;;;;3.10;2.80;;;;;;;3.55;66.58;99975.59;686091;28;1178;-86
2023/03/11 00:58:04;;;;;;;3.20;2.90;;;;;;;3.51;66.42;99968.56;688654;28;1442;-87
2023/03/11 00:58:43;;;;;;;4.22;3.17;;;;;;;3.54;66.50;99980.69;691465;28;1067;-86
2023/03/11 00:59:04;;;;;;;3.40;3.00;;;;;;;3.46;66.61;99967.47;691278;28;1255;-87
2023/03/11 00:59:25;;;;;;;3.40;3.08;;;;;;;3.39;66.84;99960.28;680811;28;1230;-86
2023/03/11 00:59:46;;;;;;;3.15;2.85;;;;;;;3.49;66.54;99966.72;683413;29;1001;-87
2023/03/11 01:00:10;;;;;;;3.17;2.87;;;;;;;3.54;66.33;99972.94;685882;28;1145;-87
2023/03/11 01:00:31;;;;;;;2.90;2.70;;;;;;;3.56;66.27;99976.50;691352;28;1327;-87
2023/03/11 01:00:51;;;;;;;2.80;2.60;;;;;;;3.48;66.58;99973.56;688612;28;1155;-86
2023/03/11 01:01:16;;;;;;;2.80;2.60;;;;;;;3.49;66.53;99966.72;683487;28;1181;-87
2023/03/11 01:01:36;;;;;;;2.67;2.50;;;;;;;3.48;66.36;99978.72;683477;28;1263;-88
2023/03/11 01:01:57;;;;;;;3.10;2.65;;;;;;;3.45;66.38;99972.53;686055;28;1201;-87
2023/03/11 01:02:18;;;;;;;4.13;2.60;;;;;;;3.54;66.27;99983.25;680718;29;1240;-86
2023/03/11 01:02:38;;;;;;;4.47;2.80;;;;;;;3.49;66.90;99980.47;683330;28;1211;-87
2023/03/11 01:02:59;;;;;;;4.80;2.97;;;;;;;3.52;66.75;99978.06;686061;28;1174;-87
2023/03/11 01:03:20;;;;;;;4.07;3.20;;;;;;;3.50;66.42;99979.66;680763;29;1349;-87
2023/03/11 01:03:41;;;;;;;4.00;3.40;;;;;;;3.54;66.46;99989.31;680651;28;1295;-87
2023/03/11 01:04:01;;;;;;;3.55;3.25;;;;;;;3.48;66.42;99973.56;694146;28;1256;-87
2023/03/11 01:04:22;;;;;;;3.47;3.27;;;;;;;3.48;66.39;99968.41;686120;28;1198;-87
2023/03/11 01:04:42;;;;;;;3.30;3.10;;;;;;;3.55;66.32;99978.19;685918;28;1162;-87
2023/03/11 01:05:04;;;;;;;3.42;3.22;;;;;;;3.58;66.17;99980.03;685852;28;1033;-86
2023/03/11 01:05:28;;;;;;;3.40;3.20;;;;;;;3.51;66.65;99984.03;694122;28;1427;-87
2023/03/11 01:05:49;;;;;;;3.72;3.42;;;;;;;3.51;66.34;99985.72;688637;28;1250;-87
2023/03/11 01:06:11;;;;;;;3.42;3.13;;;;;;;3.52;66.29;99975.47;691318;28;1105;-87
2023/03/11 01:06:32;;;;;;;3.42;3.13;;;;;;;3.62;66.14;99992.22;688751;28;1392;-86
2023/03/11 01:06:52;;;;;;;3.73;3.10;;;;;;;3.55;66.37;99974.69;685712;28;1202;-86
2023/03/11 01:07:13;;;;;;;3.60;3.17;;;;;;;3.56;66.33;99982.53;688503;28;1192;-86
2023/03/11 01:07:34;;;;;;;3.30;3.00;;;;;;;3.44;66.60;99979.41;688751;28;1048;-87
2023/03/11 01:07:54;;;;;;;3.40;3.10;;;;;;;3.54;66.49;99984.16;688644;28;1187;-86
2023/03/11 01:08:15;;;;;;;3.15;2.85;;;;;;;3.50;66.30;99981.38;685949;28;1402;-85
2023/03/11 01:08:36;;;;;;;3.17;2.88;;;;;;;3.51;66.17;99975.41;680790;29;938;-87
2023/03/11 01:08:56;;;;;;;3.15;2.90;;;;;;;3.56;66.35;99992.84;683222;28;1120;-87
2023/03/11 01:09:17;;;;;;;3.50;3.10;;;;;;;3.56;66.14;99987.69;685984;28;1097;-87
2023/03/11 01:09:38;;;;;;;3.75;3.28;;;;;;;3.62;66.16;99986.19;686012;28;1110;-87
2023/03/11 01:09:59;;;;;;;3.50;3.20;;;;;;;3.66;65.94;99977.75;688654;28;952;-86
2023/03/11 01:10:19;;;;;;;3.40;3.10;;;;;;;3.61;66.03;99980.13;691332;28;1355;-87
2023/03/11 01:10:40;;;;;;;3.40;3.10;;;;;;;3.73;65.74;99994.41;685983;28;1169;-87
2023/03/11 01:11:02;;;;;;;3.10;2.90;;;;;;;3.82;65.58;99987.91;691450;28;1266;-87
2023/03/11 01:11:23;;;;;;;3.30;3.00;;;;;;;3.78;65.44;99988.63;688619;28;1248;-87
2023/03/11 01:11:43;;;;;;;3.30;3.00;;;;;;;3.78;65.47;99986.03;686055;28;1037;-87
2023/03/11 01:12:04;;;;;;;3.20;3.00;;;;;;;3.67;65.64;99997.56;683284;28;1110;-87
2023/03/11 01:12:25;;;;;;;3.88;3.22;;;;;;;3.66;65.80;99998.41;694176;28;1267;-87
2023/03/11 01:12:45;;;;;;;3.60;3.00;;;;;;;3.59;65.77;99996.38;697017;28;1012;-87
2023/03/11 01:13:06;;;;;;;4.17;3.10;;;;;;;3.52;65.69;99990.97;688552;28;1971;-87
2023/03/11 01:13:28;;;;;;;4.80;3.00;;;;;;;3.71;65.67;99996.91;688757;28;1304;-87
2023/03/11 01:13:49;;;;;;;5.05;3.30;;;;;;;3.69;65.51;99988.22;686225;28;1111;-87
2023/03/11 01:14:09;;;;;;;4.75;3.30;;;;;;;3.56;65.57;99992.84;685938;28;1203;-87
2023/03/11 01:14:31;;;;;;;3.40;3.10;;;;;;;3.68;65.98;99992.50;688741;28;1255;-86
2023/03/11 01:14:51;;;;;;;3.70;3.00;;;;;;;3.73;65.41;99994.41;685841;28;1094;-87
2023/03/11 01:15:25;;;;;;;3.30;2.97;;;;;;;3.60;65.85;99999.03;688705;28;1080;-87
2023/03/11 01:15:45;;;;;;;3.20;3.00;;;;;;;3.67;65.60;99998.47;694140;28;1027;-87
2023/03/11 01:16:07;;;;;;;3.20;3.00;;;;;;;3.64;65.62;99995.78;688558;28;1135;-86
2023/03/11 01:16:28;;;;;;;3.38;3.10;;;;;;;3.62;65.66;100001.69;691424;28;1299;-87
2023/03/11 01:16:49;;;;;;;3.20;3.00;;;;;;;3.63;65.77;99998.28;685800;28;1264;-87
2023/03/11 01:17:10;;;;;;;3.30;3.03;;;;;;;3.55;65.65;99988.50;685975;28;1207;-86
2023/03/11 01:17:30;;;;;;;3.30;3.00;;;;;;;3.58;66.09;100000.66;686172;28;835;-87
2023/03/11 01:17:51;;;;;;;3.20;2.90;;;;;;;3.51;66.21;100004.69;691508;28;1166;-87
2023/03/11 01:18:13;;;;;;;3.10;2.90;;;;;;;3.44;66.10;99996.59;693971;28;1132;-86
2023/03/11 01:18:34;;;;;;;3.33;3.03;;;;;;;3.48;66.33;99994.19;688827;28;1244;-87
2023/03/11 01:18:54;;;;;;;4.10;3.35;;;;;;;3.43;66.37;99995.69;683161;28;1285;-86
2023/03/11 01:19:15;;;;;;;4.20;3.50;;;;;;;3.50;66.15;100000.31;688671;28;1479;-87
2023/03/11 01:19:36;;;;;;;3.90;3.40;;;;;;;3.44;66.35;99997.47;694050;28;1115;-86
2023/03/11 01:19:57;;;;;;;3.70;3.40;;;;;;;3.46;66.18;99984.63;688558;28;1047;-86
2023/03/11 01:20:17;;;;;;;3.47;3.10;;;;;;;3.49;65.98;99997.69;691308;28;944;-86
2023/03/11 01:20:39;;;;;;;3.57;3.20;;;;;;;3.42;66.39;99994.81;691399;28;1285;-86
2023/03/11 01:20:59;;;;;;;3.47;3.05;;;;;;;3.48;66.17;99990.75;683249;28;1423;-86
2023/03/11 01:21:20;;;;;;;3.93;3.10;;;;;;;3.60;66.22;100016.22;688788;28;1174;-87
2023/03/11 01:21:41;;;;;;;3.80;3.10;;;;;;;3.55;65.89;100006.56;691444;28;1032;-87
2023/03/11 01:22:02;;;;;;;3.85;3.10;;;;;;;3.53;66.01;100012.47;688602;28;1274;-86
2023/03/11 01:22:23;;;;;;;3.10;2.90;;;;;;;3.45;66.17;100000.91;685973;28;1343;-87
2023/03/11 01:22:44;;;;;;;3.70;3.40;;;;;;;3.39;65.88;99993.81;688796;28;1345;-86
2023/03/11 01:23:06;;;;;;;3.55;3.20;;;;;;;3.47;66.16;100012.19;688501;28;1136;-86
2023/03/11 01:23:26;;;;;;;4.10;3.30;;;;;;;3.46;66.20;100006.16;685986;28;1311;-87
2023/03/11 01:23:47;;;;;;;4.07;3.20;;;;;;;3.46;66.33;100006.16;688688;28;1172;-87
2023/03/11 01:24:08;;;;;;;3.53;3.23;;;;;;;3.40;66.35;100005.88;691380;28;1132;-87
2023/03/11 01:24:29;;;;;;;3.40;3.10;;;;;;;3.33;66.34;99994.41;688671;28;1190;-86
2023/03/11 01:24:49;;;;;;;3.08;2.88;;;;;;;3.42;66.35;100001.66;691386;28;1296;-86
2023/03/11 01:25:15;;;;;;;3.77;3.00;;;;;;;3.48;66.30;100009.69;688639;28;1052;-87
2023/03/11 01:25:36;;;;;;;4.32;3.10;;;;;;;3.38;66.56;100010.09;686061;28;1230;-87
2023/03/11 01:25:56;;;;;;;3.58;3.22;;;;;;;3.42;66.76;100015.44;688635;28;1190;-86
2023/03/11 01:26:20;;;;;;;4.10;3.50;;;;;;;3.44;66.15;100009.47;680758;29;1144;-86
2023/03/11 01:26:40;;;;;;;3.80;3.40;;;;;;;3.43;66.20;100013.75;685799;28;1124;-87
2023/03/11 01:27:01;;;;;;;3.88;3.47;;;;;;;3.38;66.50;100007.50;685819;28;1153;-87
2023/03/11 01:27:22;;;;;;;3.55;3.25;;;;;;;3.45;66.43;100011.25;683373;28;1216;-87
2023/03/11 01:27:43;;;;;;;3.50;3.20;;;;;;;3.35;66.34;100007.34;680717;29;1045;-87
2023/03/11 01:28:04;;;;;;;3.42;3.13;;;;;;;3.44;66.25;100024.97;688526;28;1250;-86
2023/03/11 01:28:25;;;;;;;3.45;3.15;;;;;;;3.31;66.44;100013.22;691377;28;1297;-87
2023/03/11 01:28:46;;;;;;;3.28;2.97;;;;;;;3.34;66.38;100014.22;685943;28;1091;-87
2023/03/11 01:29:07;;;;;;;3.00;2.70;;;;;;;3.32;66.29;100002.06;683307;29;1187;-87
2023/03/11 01:29:28;;;;;;;3.10;2.80;;;;;;;3.33;66.28;100004.72;680691;29;1280;-86
2023/03/11 01:29:49;;;;;;;3.20;2.90;;;;;;;3.31;66.53;100011.50;683351;29;990;-87
2023/03/11 01:30:15;;;;;;;3.50;3.20;;;;;;;3.08;66.80;100007.88;683300;29;953;-87
2023/03/11 01:30:37;;;;;;;3.50;3.20;;;;;;;3.04;66.98;100016.25;683301;28;1382;-86
2023/03/11 01:31:00;;;;;;;3.60;3.30;;;;;;;3.05;67.22;100012.91;683179;29;1279;-87
2023/03/11 01:31:20;;;;;;;3.70;3.40;;;;;;;3.03;67.30;100019.66;683346;29;1222;-86
2023/03/11 01:31:41;;;;;;;3.53;3.22;;;;;;;3.00;67.32;100010.13;680606;28;1196;-86
2023/03/11 01:32:02;;;;;;;3.47;3.10;;;;;;;3.11;67.60;100018.31;688442;28;1329;-86
2023/03/11 01:32:23;;;;;;;4.05;3.17;;;;;;;3.20;67.15;100005.88;688540;28;1226;-86
2023/03/11 01:32:44;;;;;;;5.00;3.30;;;;;;;3.21;67.27;100010.22;683083;28;1497;-86
2023/03/11 01:33:06;;;;;;;4.78;3.30;;;;;;;3.25;66.91;100006.09;685767;28;1960;-86
2023/03/11 01:33:28;;;;;;;3.88;3.20;;;;;;;3.23;66.90;100000.84;683312;29;1435;-86
2023/03/11 01:33:49;;;;;;;4.47;3.20;;;;;;;3.25;67.02;100012.09;685920;28;1377;-86
2023/03/11 01:34:11;;;;;;;4.28;3.13;;;;;;;3.28;67.09;100007.09;685776;28;1133;-86
2023/03/11 01:34:34;;;;;;;4.53;3.10;;;;;;;3.36;66.63;100006.56;686028;28;1246;-86
2023/03/11 01:34:55;;;;;;;4.40;3.00;;;;;;;3.30;66.87;100009.72;688576;28;1067;-87
2023/03/11 01:35:18;;;;;;;5.10;2.90;;;;;;;3.33;66.77;100009.00;694037;28;1168;-86
2023/03/11 01:35:41;;;;;;;4.93;3.00;;;;;;;3.24;66.48;100015.50;691265;28;1136;-86
2023/03/11 01:36:01;;;;;;;4.00;3.08;;;;;;;3.10;66.89;100001.97;691193;28;1207;-86
2023/03/11 01:36:22;;;;;;;3.58;2.92;;;;;;;3.10;67.21;100013.97;688695;28;1077;-87
2023/03/11 01:36:43;;;;;;;3.70;3.10;;;;;;;3.17;67.28;100005.72;685873;28;1053;-86
2023/03/11 01:37:03;;;;;;;3.60;3.20;;;;;;;3.21;67.17;100005.06;691203;28;1176;-87
2023/03/11 01:37:24;;;;;;;3.60;3.30;;;;;;;3.27;67.02;100014.75;694190;28;1036;-87
2023/03/11 01:37:45;;;;;;;3.50;3.20;;;;;;;3.25;66.89;100014.69;688746;28;1125;-87
2023/03/11 01:38:06;;;;;;;3.60;3.30;;;;;;;3.30;66.89;100016.59;680423;29;1309;-86
2023/03/11 01:38:27;;;;;;;3.55;3.25;;;;;;;3.13;67.37;100012.44;683440;28;776;-86
2023/03/11 01:38:47;;;;;;;3.30;3.00;;;;;;;3.20;67.24;100005.88;683331;28;1023;-86
2023/03/11 01:39:08;;;;;;;4.45;3.20;;;;;;;3.10;66.87;100014.88;683099;28;1218;-86
2023/03/11 01:39:29;;;;;;;4.43;3.55;;;;;;;2.96;67.38;100018.50;678240;29;1495;-87
2023/03/11 01:39:50;;;;;;;4.95;3.72;;;;;;;3.01;67.28;100005.00;685880;28;1381;-86
2023/03/11 01:40:25;;;;;;;4.13;3.40;;;;;;;3.13;67.32;100001.25;683321;29;975;-87
2023/03/11 01:40:49;;;;;;;3.80;3.40;;;;;;;3.24;67.08;100010.34;680645;28;1097;-86
2023/03/11 01:41:11;;;;;;;3.75;3.40;;;;;;;3.23;66.90;100006.00;683333;28;1193;-87
2023/03/11 01:41:32;;;;;;;3.30;3.00;;;;;;;3.18;67.11;100002.31;683299;28;1203;-87
2023/03/11 01:41:55;;;;;;;3.40;3.00;;;;;;;3.16;66.96;100016.84;683177;28;1415;-86
2023/03/11 01:42:16;;;;;;;3.30;3.00;;;;;;;3.03;67.09;100017.09;691449;28;1392;-86
2023/03/11 01:42:36;;;;;;;3.60;3.20;;;;;;;2.92;67.71;100011.41;691504;28;854;-87
2023/03/11 01:42:59;;;;;;;4.28;3.22;;;;;;;2.92;67.43;100011.41;680684;29;1247;-86
2023/03/11 01:43:41;;;;;;;4.97;3.30;;;;;;;2.95;67.62;100022.75;685829;28;1100;-86
2023/03/11 01:44:22;;;;;;;3.63;3.22;;;;;;;2.86;68.29;100020.66;683032;28;1317;-87
2023/03/11 01:44:43;;;;;;;3.30;3.00;;;;;;;2.77;68.34;100007.34;686663;28;1114;-87
2023/03/11 01:45:52;;;;;;;3.10;2.80;;;;;;;2.82;68.49;100025.59;685751;28;1181;-86
2023/03/11 01:46:29;;;;;;;3.75;3.30;;;;;;;2.82;68.65;100023.88;677878;29;1234;-86
2023/03/11 01:46:52;;;;;;;3.40;3.10;;;;;;;2.84;68.02;100027.44;685570;28;1147;-87
2023/03/11 01:47:37;;;;;;;3.97;3.33;;;;;;;2.67;68.43;100018.91;685921;28;1185;-87